Time;durP1;ratioP1;P1;durP2;ratioP2;P2;SDS_P1;SDS_P2;PMS_P1;PMS_P2;Temp;Humidity;BMP_temperature;BMP_pressure;BME280_temperature;BME280_humidity;BME280_pressure;Samples;Min_cycle;Max_cycle;Signal;HPM_P1;HPM_P2
2022/08/18 00:02:22;;;;;;;32.30;16.38;;;18.10;99.90;;;;;;4959706;28;20043;-91
2022/08/18 00:04:48;;;;;;;31.35;17.35;;;17.90;99.90;;;;;;4959548;28;20498;-92
2022/08/18 00:07:23;;;;;;;31.13;17.77;;;18.20;99.90;;;;;;4958128;28;20046;-92
2022/08/18 00:09:49;;;;;;;28.02;15.00;;;17.90;99.90;;;;;;4959733;28;20121;-92
2022/08/18 00:12:28;;;;;;;26.08;14.93;;;17.90;99.90;;;;;;4959283;28;20390;-92
2022/08/18 00:14:54;;;;;;;28.35;15.05;;;17.80;99.90;;;;;;4975937;28;20121;-91
2022/08/18 00:17:21;;;;;;;28.30;14.77;;;17.70;99.90;;;;;;4959158;28;20039;-91
2022/08/18 00:19:47;;;;;;;29.83;15.50;;;17.70;99.90;;;;;;4975998;28;20060;-92
2022/08/18 00:22:18;;;;;;;27.13;15.43;;;17.70;99.90;;;;;;4976771;28;20479;-91
2022/08/18 00:24:46;;;;;;;29.40;15.32;;;17.70;99.90;;;;;;4976707;28;20054;-92
2022/08/18 00:27:11;;;;;;;24.88;14.57;;;17.60;99.90;;;;;;4975576;28;20533;-92
2022/08/18 00:29:37;;;;;;;26.83;14.15;;;18.10;99.90;;;;;;4958531;28;20125;-92
2022/08/18 00:32:16;;;;;;;31.23;15.27;;;17.60;99.90;;;;;;4958920;28;20059;-92
2022/08/18 00:34:42;;;;;;;28.02;14.82;;;17.60;99.90;;;;;;4957057;28;20427;-91
2022/08/18 00:37:07;;;;;;;26.00;16.15;;;17.60;99.90;;;;;;4959311;28;20058;-92
2022/08/18 00:39:33;;;;;;;29.38;16.02;;;17.50;99.90;;;;;;4976141;28;20528;-92
2022/08/18 00:42:10;;;;;;;33.55;17.70;;;17.50;99.90;;;;;;4976106;28;20073;-92
2022/08/18 00:44:36;;;;;;;32.28;17.25;;;17.50;99.90;;;;;;4960540;28;20046;-92
2022/08/18 00:47:01;;;;;;;34.78;17.35;;;17.90;99.90;;;;;;4981653;28;20127;-93
2022/08/18 00:49:27;;;;;;;31.15;16.88;;;18.00;99.90;;;;;;4967122;28;20095;-92
2022/08/18 00:51:53;;;;;;;36.25;17.23;;;17.60;99.90;;;;;;4988358;28;20054;-93
2022/08/18 00:54:29;;;;;;;34.88;18.48;;;17.40;99.90;;;;;;4959048;28;20054;-92
2022/08/18 00:56:59;;;;;;;36.88;18.92;;;17.80;99.90;;;;;;4975679;28;20039;-92
2022/08/18 00:59:30;;;;;;;39.15;19.70;;;17.40;99.90;;;;;;4958571;28;20054;-92
2022/08/18 01:02:01;;;;;;;39.92;20.15;;;17.90;99.90;;;;;;4962038;28;20066;-92
2022/08/18 01:04:38;;;;;;;44.30;20.30;;;17.70;99.90;;;;;;4958936;28;20549;-92
2022/08/18 01:07:19;;;;;;;41.30;20.42;;;17.40;99.90;;;;;;4959069;28;20141;-92
2022/08/18 01:09:50;;;;;;;31.80;15.38;;;17.40;99.90;;;;;;4958156;28;20047;-92
2022/08/18 01:12:16;;;;;;;30.27;15.23;;;17.30;99.90;;;;;;4963325;28;20479;-93
2022/08/18 01:14:42;;;;;;;42.05;21.00;;;17.50;99.90;;;;;;4959346;28;20035;-93
2022/08/18 01:22:49;;;;;;;41.90;20.27;;;17.50;99.90;;;;;;4957926;28;20059;-92
2022/08/18 01:28:04;;;;;;;44.20;21.10;;;17.60;99.90;;;;;;4995906;28;20026;-92
2022/08/18 01:30:31;;;;;;;49.40;21.63;;;17.60;99.90;;;;;;4973534;28;20097;-92
2022/08/18 01:32:57;;;;;;;45.55;20.75;;;17.50;99.90;;;;;;4959298;28;20090;-93
2022/08/18 01:35:25;;;;;;;37.70;17.40;;;17.90;99.90;;;;;;4958549;28;20051;-92
2022/08/18 01:37:54;;;;;;;38.28;18.02;;;18.10;99.90;;;;;;4957983;28;20398;-92
2022/08/18 01:40:23;;;;;;;36.40;18.40;;;17.60;99.90;;;;;;4975985;28;20051;-93
2022/08/18 01:42:48;;;;;;;39.28;18.52;;;17.60;99.90;;;;;;4976376;28;20050;-93
2022/08/18 01:45:16;;;;;;;37.00;18.13;;;17.60;99.90;;;;;;4992880;28;20039;-93
2022/08/18 01:47:44;;;;;;;32.38;16.52;;;17.60;99.90;;;;;;4976393;28;20072;-92
2022/08/18 01:50:12;;;;;;;39.33;20.75;;;17.70;99.90;;;;;;4958383;28;20054;-92
2022/08/18 01:52:38;;;;;;;39.70;20.00;;;17.70;99.90;;;;;;4957591;28;20133;-94
2022/08/18 01:55:06;;;;;;;36.85;19.42;;;18.20;99.90;;;;;;4958557;28;20057;-93
2022/08/18 01:57:32;;;;;;;34.40;19.15;;;17.80;99.90;;;;;;4975084;28;20042;-93
2022/08/18 01:59:59;;;;;;;38.88;19.95;;;17.60;99.90;;;;;;4957051;28;20053;-93
2022/08/18 02:02:31;;;;;;;36.97;19.45;;;17.70;99.90;;;;;;4956961;28;20442;-92
2022/08/18 02:05:04;;;;;;;37.90;19.95;;;17.70;99.90;;;;;;4957194;28;20038;-93
2022/08/18 02:07:30;;;;;;;36.75;19.42;;;18.20;99.90;;;;;;4957487;28;20042;-93
2022/08/18 02:09:55;;;;;;;42.08;20.02;;;17.80;99.90;;;;;;4975165;28;20043;-93
2022/08/18 02:12:21;;;;;;;35.83;19.38;;;17.60;99.90;;;;;;4956946;28;20121;-92
2022/08/18 02:14:46;;;;;;;34.72;17.98;;;17.50;99.90;;;;;;4975307;28;20419;-93
2022/08/18 02:17:13;;;;;;;38.00;19.50;;;17.50;99.90;;;;;;4957958;28;20058;-94
2022/08/18 02:19:44;;;;;;;38.83;18.80;;;17.80;99.90;;;;;;4963553;28;20443;-94
2022/08/18 02:22:14;;;;;;;36.85;18.63;;;17.50;99.90;;;;;;4957754;28;20054;-94
2022/08/18 02:24:40;;;;;;;44.42;19.08;;;17.50;99.90;;;;;;4980480;28;20054;-92
2022/08/18 02:27:06;;;;;;;38.50;18.85;;;17.60;99.90;;;;;;4985366;28;20046;-93
2022/08/18 02:29:32;;;;;;;37.47;18.63;;;18.20;99.90;;;;;;4957657;28;20403;-94
2022/08/18 02:31:58;;;;;;;38.70;19.02;;;17.60;99.90;;;;;;4957458;28;20524;-93
2022/08/18 02:34:24;;;;;;;40.10;19.48;;;17.70;99.90;;;;;;4973805;28;20039;-93
2022/08/18 02:36:50;;;;;;;37.60;18.60;;;17.70;99.90;;;;;;4957192;28;20058;-93
2022/08/18 02:39:16;;;;;;;38.88;18.35;;;17.50;99.90;;;;;;4956946;28;20082;-93
2022/08/18 02:41:42;;;;;;;38.33;18.48;;;17.60;99.90;;;;;;4956826;28;20047;-93
2022/08/18 02:44:08;;;;;;;45.95;18.58;;;17.50;99.90;;;;;;4957462;28;20066;-93
2022/08/18 02:46:35;;;;;;;41.65;19.50;;;17.90;99.90;;;;;;4956780;28;20053;-94
2022/08/18 02:49:01;;;;;;;45.30;18.73;;;17.60;99.90;;;;;;4975870;28;20038;-93
2022/08/18 02:51:27;;;;;;;37.40;18.65;;;18.10;99.90;;;;;;4958650;28;20050;-93
2022/08/18 02:53:53;;;;;;;38.42;17.45;;;17.60;99.90;;;;;;4974275;28;20047;-93
2022/08/18 02:58:48;;;;;;;46.55;18.02;;;17.50;99.90;;;;;;4957189;28;20130;-94
2022/08/18 03:01:14;;;;;;;42.13;17.50;;;17.50;99.90;;;;;;4960766;28;20046;-92
2022/08/18 03:03:39;;;;;;;34.90;17.13;;;17.50;99.90;;;;;;4956774;28;20057;-91
2022/08/18 03:06:05;;;;;;;40.38;17.92;;;18.00;99.90;;;;;;4957164;28;20403;-93
2022/08/18 03:08:31;;;;;;;39.88;16.45;;;17.50;99.90;;;;;;4973513;28;20086;-93
2022/08/18 03:10:58;;;;;;;32.75;16.10;;;17.50;99.90;;;;;;4960666;28;20050;-93
2022/08/18 03:13:24;;;;;;;37.85;15.95;;;17.50;99.90;;;;;;4957889;28;20047;-93
2022/08/18 03:15:50;;;;;;;39.53;15.90;;;17.50;99.90;;;;;;4956225;28;20051;-94
2022/08/18 03:18:15;;;;;;;34.50;15.65;;;17.40;99.90;;;;;;4974024;28;20078;-94
2022/08/18 03:20:45;;;;;;;34.35;15.80;;;17.60;99.90;;;;;;4956922;28;20046;-93
2022/08/18 03:23:11;;;;;;;36.33;16.30;;;17.80;99.90;;;;;;4955978;28;20582;-93
2022/08/18 03:25:46;;;;;;;31.17;12.90;;;17.50;99.90;;;;;;4956643;28;20049;-94
2022/08/18 03:28:13;;;;;;;27.67;14.70;;;17.40;99.90;;;;;;4957052;28;20419;-94
2022/08/18 03:30:38;;;;;;;31.38;14.05;;;17.50;99.90;;;;;;4973074;28;20042;-93
2022/08/18 03:33:04;;;;;;;29.27;14.35;;;17.40;99.90;;;;;;4956790;28;20043;-94
2022/08/18 03:35:30;;;;;;;31.13;14.65;;;17.50;99.90;;;;;;4956354;28;20085;-94
2022/08/18 03:37:59;;;;;;;27.52;13.93;;;17.40;99.90;;;;;;4973754;28;20047;-94
2022/08/18 03:40:25;;;;;;;29.67;14.80;;;17.30;99.90;;;;;;4973714;28;20078;-94
2022/08/18 03:42:50;;;;;;;31.50;14.68;;;17.40;99.90;;;;;;4956809;28;20074;-94
2022/08/18 03:45:16;;;;;;;34.50;14.50;;;17.30;99.90;;;;;;4973436;28;20059;-94
2022/08/18 03:47:44;;;;;;;31.20;14.63;;;17.30;99.90;;;;;;4956983;28;20043;-94
2022/08/18 03:50:10;;;;;;;29.13;14.70;;;17.40;99.90;;;;;;4957146;28;20137;-94
2022/08/18 03:52:37;;;;;;;32.22;15.23;;;17.40;99.90;;;;;;4962938;28;20045;-94
2022/08/18 03:55:04;;;;;;;35.03;15.07;;;17.40;99.90;;;;;;4957074;28;20051;-93
2022/08/18 03:57:31;;;;;;;32.78;15.40;;;17.40;99.90;;;;;;4973950;28;20050;-94
2022/08/18 03:59:58;;;;;;;31.52;15.05;;;17.60;99.90;;;;;;4961953;28;20057;-93
2022/08/18 04:02:23;;;;;;;36.63;16.35;;;17.40;99.90;;;;;;4977252;28;20090;-95
2022/08/18 04:04:49;;;;;;;34.08;15.20;;;17.40;99.90;;;;;;4954007;28;20043;-93
2022/08/18 04:07:16;;;;;;;32.83;15.20;;;17.50;99.90;;;;;;4940767;29;20059;-94
2022/08/18 04:09:42;;;;;;;32.75;15.07;;;17.40;99.90;;;;;;4957996;29;20579;-94
2022/08/18 04:12:11;;;;;;;26.42;12.65;;;17.40;99.90;;;;;;4940659;29;20043;-94
2022/08/18 04:14:39;;;;;;;30.35;13.13;;;17.40;99.90;;;;;;4940595;29;20053;-93
2022/08/18 04:17:05;;;;;;;29.55;13.48;;;17.40;99.90;;;;;;4941286;28;20058;-94
2022/08/18 04:19:33;;;;;;;28.10;13.18;;;17.40;99.90;;;;;;4957021;29;20492;-95
2022/08/18 04:21:59;;;;;;;23.17;12.70;;;18.10;99.90;;;;;;4940713;29;20048;-94
2022/08/18 04:24:27;;;;;;;27.63;13.30;;;17.90;99.90;;;;;;4957098;28;20095;-94
2022/08/18 04:26:54;;;;;;;31.42;13.65;;;17.50;99.90;;;;;;4940234;29;20047;-94
2022/08/18 04:29:20;;;;;;;30.77;13.60;;;17.50;99.90;;;;;;4949366;28;20039;-94
2022/08/18 04:31:46;;;;;;;31.33;13.35;;;17.50;99.90;;;;;;4962083;29;20044;-93
2022/08/18 04:34:12;;;;;;;30.20;13.60;;;17.50;99.90;;;;;;4964504;29;20512;-93
2022/08/18 04:36:39;;;;;;;30.25;14.48;;;17.50;99.90;;;;;;4941929;29;20035;-94
2022/08/18 04:39:07;;;;;;;28.60;14.30;;;17.40;99.90;;;;;;4956956;29;20058;-94
2022/08/18 04:41:33;;;;;;;27.92;14.35;;;17.40;99.90;;;;;;4942217;29;20047;-94
2022/08/18 04:44:02;;;;;;;30.27;14.32;;;17.40;99.90;;;;;;4941107;29;20162;-94
2022/08/18 04:46:29;;;;;;;32.40;14.50;;;17.40;99.90;;;;;;4957826;29;20485;-95
2022/08/18 04:48:57;;;;;;;29.08;14.20;;;17.60;99.90;;;;;;4942696;29;20043;-94
2022/08/18 04:51:24;;;;;;;33.20;15.63;;;18.00;99.90;;;;;;4958714;28;20058;-95
2022/08/18 04:53:50;;;;;;;29.15;15.65;;;17.40;99.90;;;;;;4958493;29;20043;-94
2022/08/18 04:56:25;;;;;;;28.65;14.13;;;17.50;99.90;;;;;;4940652;29;20054;-95
2022/08/18 04:58:55;;;;;;;33.80;14.23;;;17.40;99.90;;;;;;4942287;29;20047;-94
2022/08/18 05:01:28;;;;;;;31.38;15.25;;;17.50;99.90;;;;;;4973373;29;20090;-93
2022/08/18 05:03:57;;;;;;;36.72;15.90;;;17.50;99.90;;;;;;4943988;29;20055;-95
2022/08/18 05:06:27;;;;;;;32.92;15.63;;;17.50;99.90;;;;;;4958072;29;20467;-94
2022/08/18 05:08:56;;;;;;;36.65;16.33;;;17.60;99.90;;;;;;4945000;29;20055;-94
2022/08/18 05:11:23;;;;;;;35.58;16.27;;;17.60;99.90;;;;;;4966360;28;20047;-94
2022/08/18 05:13:51;;;;;;;33.55;16.70;;;17.60;99.90;;;;;;4956999;29;20492;-94
2022/08/18 05:16:17;;;;;;;33.60;15.38;;;17.70;99.90;;;;;;4956487;28;20079;-94
2022/08/18 05:18:43;;;;;;;32.72;14.98;;;17.70;99.90;;;;;;4939716;29;20051;-95
2022/08/18 05:21:13;;;;;;;32.85;15.02;;;17.70;99.90;;;;;;4960346;28;20043;-95
2022/08/18 05:23:44;;;;;;;35.30;15.18;;;18.10;99.90;;;;;;4942586;29;20435;-95
2022/08/18 05:26:12;;;;;;;32.10;15.10;;;17.80;99.90;;;;;;4938718;29;20047;-94
2022/08/18 05:28:38;;;;;;;28.90;14.20;;;17.80;99.90;;;;;;4957452;29;20035;-94
2022/08/18 05:31:13;;;;;;;26.65;14.13;;;17.80;99.90;;;;;;4938872;29;20526;-93
2022/08/18 05:33:40;;;;;;;33.38;14.93;;;17.80;99.90;;;;;;4968354;29;20043;-95
2022/08/18 05:36:16;;;;;;;30.98;14.95;;;18.10;99.90;;;;;;4978907;28;20021;-94
2022/08/18 05:39:05;;;;;;;31.98;14.88;;;17.90;99.90;;;;;;4961152;28;20047;-94
2022/08/18 05:41:40;;;;;;;28.35;13.63;;;18.00;99.90;;;;;;4958594;28;20043;-94
2022/08/18 05:44:08;;;;;;;32.55;14.45;;;18.00;99.90;;;;;;4955784;29;20506;-95
2022/08/18 05:46:48;;;;;;;27.00;14.32;;;18.10;99.90;;;;;;4955006;28;20047;-96
2022/08/18 05:49:15;;;;;;;30.15;13.13;;;18.00;99.90;;;;;;4955299;29;20102;-95
2022/08/18 05:51:56;;;;;;;30.17;14.90;;;18.60;99.90;;;;;;4938104;29;20062;-95
2022/08/18 05:57:18;;;;;;;28.60;13.65;;;18.00;99.90;;;;;;4955999;29;20055;-93
2022/08/18 05:59:45;;;;;;;28.80;13.10;;;18.00;99.90;;;;;;4955460;29;20484;-93
2022/08/18 06:02:34;;;;;;;34.05;13.35;;;18.50;99.90;;;;;;4962983;28;20093;-95
2022/08/18 06:05:05;;;;;;;25.23;12.43;;;17.90;99.90;;;;;;4979221;28;20042;-83
2022/08/18 06:07:43;;;;;;;23.27;12.40;;;18.50;99.90;;;;;;4975666;28;20133;-84
2022/08/18 06:10:10;;;;;;;26.35;12.60;;;18.00;99.90;;;;;;4975868;28;20092;-84
2022/08/18 06:12:40;;;;;;;27.95;12.80;;;18.10;99.90;;;;;;4974948;28;20541;-84
2022/08/18 06:15:35;;;;;;;26.35;12.50;;;18.20;99.90;;;;;;4976058;28;20443;-85
2022/08/18 06:18:36;;;;;;;27.30;11.77;;;18.10;99.90;;;;;;4981409;28;20129;-85
2022/08/18 06:21:32;;;;;;;24.10;10.73;;;18.10;99.90;;;;;;4986331;28;20062;-84
2022/08/18 06:24:36;;;;;;;24.27;10.93;;;18.10;99.90;;;;;;4938276;28;1084832;-85
2022/08/18 06:27:17;;;;;;;20.88;11.02;;;18.20;99.90;;;;;;4975388;28;20061;-85
2022/08/18 06:30:05;;;;;;;21.13;10.40;;;18.30;99.90;;;;;;4976028;28;20054;-85
2022/08/18 06:32:58;;;;;;;22.35;10.55;;;18.40;99.90;;;;;;4975156;28;20054;-84
2022/08/18 06:35:48;;;;;;;19.25;9.95;;;18.40;99.90;;;;;;4975260;28;20073;-90
2022/08/18 06:41:16;;;;;;;21.45;9.73;;;18.50;99.90;;;;;;4992979;28;20054;-87
2022/08/18 06:44:10;;;;;;;21.35;10.40;;;18.40;99.90;;;;;;4976440;28;20133;-88
2022/08/18 06:47:05;;;;;;;18.07;9.90;;;18.60;99.90;;;;;;4940161;28;20414;-88
2022/08/18 06:49:50;;;;;;;16.75;9.02;;;18.60;99.90;;;;;;4993113;28;20301;-88
2022/08/18 06:52:32;;;;;;;18.17;8.65;;;18.60;99.90;;;;;;4997330;23;20062;-93
2022/08/18 06:55:12;;;;;;;16.88;8.82;;;18.70;99.90;;;;;;4986399;28;20125;-89
2022/08/18 06:58:00;;;;;;;15.75;8.70;;;19.30;99.90;;;;;;4972380;23;20081;-86
2022/08/18 07:00:32;;;;;;;14.98;8.60;;;19.20;99.90;;;;;;4956005;28;20050;-86
2022/08/18 07:03:30;;;;;;;16.70;8.05;;;19.00;99.90;;;;;;4970755;23;20486;-86
2022/08/18 07:06:30;;;;;;;16.63;8.05;;;18.80;99.90;;;;;;4982400;23;20050;-85
2022/08/18 07:09:35;;;;;;;15.00;8.45;;;18.90;99.90;;;;;;4904042;28;20496;-86
2022/08/18 07:12:07;;;;;;;16.77;7.65;;;18.90;99.90;;;;;;4987994;28;20054;-89
2022/08/18 07:14:55;;;;;;;15.63;8.15;;;18.90;99.90;;;;;;4975567;28;20442;-89
2022/08/18 07:17:47;;;;;;;15.15;7.63;;;18.80;99.90;;;;;;4993023;28;20050;-90
2022/08/18 07:20:23;;;;;;;17.98;8.88;;;18.90;99.90;;;;;;4993261;28;20145;-89
2022/08/18 07:23:15;;;;;;;16.08;7.88;;;18.80;99.90;;;;;;4987989;28;20133;-90
2022/08/18 07:25:45;;;;;;;19.65;8.10;;;18.90;99.90;;;;;;4971125;28;20394;-89
2022/08/18 07:28:50;;;;;;;14.85;8.10;;;19.50;99.90;;;;;;4975762;28;20085;-91
2022/08/18 07:31:42;;;;;;;15.98;7.85;;;19.10;99.90;;;;;;4888058;29;20040;-91
2022/08/18 07:34:57;;;;;;;14.85;7.60;;;19.30;99.90;;;;;;4964355;28;20089;-90
2022/08/18 07:38:01;;;;;;;14.98;7.82;;;19.40;99.90;;;;;;4953540;28;20081;-90
2022/08/18 07:41:04;;;;;;;14.77;7.32;;;19.50;99.90;;;;;;4973388;28;20442;-91
2022/08/18 07:44:03;;;;;;;13.77;7.10;;;19.50;99.90;;;;;;4944235;28;20141;-90
2022/08/18 07:46:47;;;;;;;14.50;7.60;;;19.70;99.90;;;;;;4968068;28;20422;-92
2022/08/18 07:49:23;;;;;;;15.75;7.53;;;20.40;99.90;;;;;;4995192;28;20042;-88
2022/08/18 07:53:04;;;;;;;14.57;7.60;;;20.00;99.90;;;;;;4978578;28;20043;-88
2022/08/18 07:55:49;;;;;;;12.85;7.10;;;20.00;99.90;;;;;;4882550;29;20159;-87
2022/08/18 07:58:27;;;;;;;15.98;7.18;;;20.10;99.90;;;;;;4882027;29;20184;-88
2022/08/18 08:01:06;;;;;;;17.70;7.53;;;20.10;99.90;;;;;;4900915;29;20086;-87
2022/08/18 08:03:59;;;;;;;16.73;7.07;;;20.20;99.90;;;;;;4882934;29;20107;-88
2022/08/18 08:06:51;;;;;;;13.18;6.82;;;20.20;99.90;;;;;;4909530;28;20077;-88
2022/08/18 08:09:38;;;;;;;14.95;7.20;;;20.30;99.90;;;;;;4958675;28;20133;-88
2022/08/18 08:12:44;;;;;;;14.10;6.63;;;20.50;99.90;;;;;;4975956;28;20428;-89
2022/08/18 08:15:41;;;;;;;14.90;6.45;;;20.60;99.90;;;;;;4959259;28;20082;-88
2022/08/18 08:18:30;;;;;;;13.82;6.78;;;20.80;99.90;;;;;;4958820;28;20078;-88
2022/08/18 08:21:09;;;;;;;13.48;6.63;;;20.70;99.90;;;;;;4976340;28;20479;-89
2022/08/18 08:24:00;;;;;;;15.23;7.30;;;20.70;99.90;;;;;;4976448;28;20088;-90
2022/08/18 08:26:44;;;;;;;12.15;6.22;;;20.70;99.90;;;;;;4958206;28;20105;-89
2022/08/18 08:29:36;;;;;;;12.50;5.53;;;21.10;99.90;;;;;;4958945;28;20054;-89
2022/08/18 08:32:49;;;;;;;11.80;4.65;;;20.80;99.90;;;;;;4922904;28;20421;-90
2022/08/18 08:35:49;;;;;;;11.25;5.35;;;20.80;99.90;;;;;;4958426;28;20108;-89
2022/08/18 08:38:39;;;;;;;11.95;5.80;;;20.80;99.90;;;;;;4958810;28;20045;-87
2022/08/18 08:41:39;;;;;;;12.00;5.38;;;21.50;99.90;;;;;;4958321;28;20065;-87
2022/08/18 08:44:31;;;;;;;12.05;5.47;;;21.00;99.90;;;;;;4959734;28;20487;-87
2022/08/18 08:47:03;;;;;;;12.50;6.07;;;21.10;99.90;;;;;;4965161;28;20442;-88
2022/08/18 08:49:34;;;;;;;13.07;6.18;;;21.10;99.90;;;;;;4958557;28;20134;-87
2022/08/18 08:52:29;;;;;;;11.95;5.97;;;21.20;99.90;;;;;;4958563;28;20054;-88
2022/08/18 08:55:04;;;;;;;12.05;5.80;;;21.30;99.90;;;;;;4960288;28;20054;-87
2022/08/18 08:57:41;;;;;;;12.00;5.40;;;21.20;99.90;;;;;;4983185;28;20068;-89
2022/08/18 09:00:10;;;;;;;12.38;5.15;;;21.30;99.90;;;;;;4976235;28;20049;-87
2022/08/18 09:03:17;;;;;;;12.00;5.28;;;21.40;99.90;;;;;;4958875;28;20109;-91
2022/08/18 09:06:23;;;;;;;13.75;5.43;;;21.40;99.90;;;;;;4984220;28;20050;-87
2022/08/18 09:09:55;;;;;;;11.57;4.68;;;21.60;99.90;;;;;;4960893;28;20487;-90
2022/08/18 09:13:10;;;;;;;10.85;4.82;;;21.70;99.90;;;;;;4975410;28;20054;-86
2022/08/18 09:16:12;;;;;;;10.82;5.00;;;21.80;99.90;;;;;;4974471;28;20122;-85
2022/08/18 09:19:18;;;;;;;10.65;5.25;;;22.10;99.90;;;;;;4958054;28;20042;-87
2022/08/18 09:22:12;;;;;;;10.02;4.60;;;21.90;99.90;;;;;;4974932;28;20088;-87
2022/08/18 09:24:50;;;;;;;11.18;4.40;;;22.10;99.90;;;;;;4975422;28;20093;-87
2022/08/18 09:27:42;;;;;;;12.95;4.95;;;22.20;99.90;;;;;;4982261;28;20038;-87
2022/08/18 09:34:23;;;;;;;9.63;4.07;;;21.20;99.90;;;;;;4974437;28;20059;-88
2022/08/18 09:37:21;;;;;;;9.23;3.92;;;20.80;99.90;;;;;;4956765;28;20054;-86
2022/08/18 09:43:16;;;;;;;9.30;4.32;;;20.50;99.90;;;;;;4974194;28;20188;-89
2022/08/18 09:45:45;;;;;;;9.82;3.90;;;21.30;99.90;;;;;;5043882;23;20065;-90
2022/08/18 09:48:28;;;;;;;11.88;4.82;;;20.40;99.90;;;;;;4968119;28;20140;-88
2022/08/18 09:51:25;;;;;;;11.75;4.80;;;20.40;99.90;;;;;;4972358;28;20324;-88
2022/08/18 09:54:27;;;;;;;12.07;5.05;;;20.30;99.90;;;;;;4976974;28;20478;-92
2022/08/18 09:57:21;;;;;;;10.82;4.75;;;20.30;99.90;;;;;;4976341;28;20382;-92
2022/08/18 10:00:21;;;;;;;12.10;5.10;;;20.20;99.90;;;;;;4976543;28;20137;-90
2022/08/18 10:03:11;;;;;;;12.50;5.07;;;20.30;99.90;;;;;;4900085;29;20134;-89
2022/08/18 10:05:38;;;;;;;12.90;5.63;;;20.60;99.90;;;;;;4975599;28;20088;-91
2022/08/18 10:08:48;;;;;;;10.57;5.68;;;20.40;99.90;;;;;;4995372;28;20062;-92
2022/08/18 10:11:43;;;;;;;14.18;5.93;;;20.50;99.90;;;;;;4994031;28;20049;-94
2022/08/18 10:14:25;;;;;;;11.82;6.38;;;20.70;99.90;;;;;;4976595;28;20111;-93
2022/08/18 10:17:28;;;;;;;13.48;6.63;;;20.90;99.90;;;;;;4971115;28;20050;-90
2022/08/18 10:20:28;;;;;;;12.13;6.72;;;21.00;99.90;;;;;;4959236;28;20050;-90
2022/08/18 10:23:46;;;;;;;14.98;6.75;;;21.00;99.90;;;;;;4985196;23;20061;-93
2022/08/18 10:30:32;;;;;;;14.10;6.80;;;21.00;99.90;;;;;;4914646;29;20132;-95
2022/08/18 10:36:58;;;;;;;12.10;6.03;;;22.00;99.90;;;;;;4914443;29;20147;-93
2022/08/18 10:40:00;;;;;;;13.10;6.15;;;22.00;99.90;;;;;;4876173;29;20056;-89
2022/08/18 10:43:03;;;;;;;12.55;5.90;;;21.20;99.90;;;;;;4901647;29;20059;-93
2022/08/18 10:45:59;;;;;;;13.95;6.97;;;21.30;99.90;;;;;;4937425;29;20051;-91
2022/08/18 11:13:40;;;;;;;12.43;6.82;;;21.60;99.90;;;;;;4956225;28;20110;-92
2022/08/18 11:22:53;;;;;;;13.98;6.07;;;22.10;99.90;;;;;;5263192;23;20066;-96
2022/08/18 11:25:36;;;;;;;9.75;5.20;;;22.20;99.90;;;;;;4973620;28;20082;-91
2022/08/18 11:28:27;;;;;;;9.90;5.20;;;22.70;99.90;;;;;;4996467;28;20141;-92
2022/08/18 11:31:06;;;;;;;9.48;4.95;;;22.50;99.90;;;;;;4997345;28;20050;-92
2022/08/18 11:33:40;;;;;;;10.93;4.65;;;22.60;99.90;;;;;;4979595;28;20387;-92
2022/08/18 11:36:37;;;;;;;;;;;;;;;;;;;;;
2022/08/18 11:39:08;;;;;;;9.43;4.38;;;22.50;99.90;;;;;;4978870;28;20482;-85
2022/08/18 11:41:39;;;;;;;9.32;4.30;;;22.40;99.90;;;;;;4979181;28;20064;-92
2022/08/18 11:49:28;;;;;;;10.10;4.50;;;22.40;99.90;;;;;;4933112;28;20514;-88
2022/08/18 11:52:01;;;;;;;9.88;4.45;;;22.70;99.90;;;;;;4930075;29;20476;-87
2022/08/18 11:54:59;;;;;;;10.30;4.45;;;23.00;99.90;;;;;;4933233;29;20040;-88
2022/08/18 11:57:29;;;;;;;9.48;4.22;;;22.60;99.90;;;;;;4917777;29;20052;-89
2022/08/18 11:59:55;;;;;;;9.70;3.85;;;22.70;99.90;;;;;;4920036;29;20044;-87
2022/08/18 12:02:24;;;;;;;9.55;3.92;;;22.90;99.90;;;;;;4919921;29;20076;-88
2022/08/18 12:05:02;;;;;;;7.80;3.35;;;23.30;99.90;;;;;;4905256;29;20063;-92
2022/08/18 12:07:32;;;;;;;10.02;3.60;;;23.10;99.90;;;;;;4930158;29;20055;-93
2022/08/18 12:10:24;;;;;;;8.95;3.58;;;23.40;99.90;;;;;;4922586;29;20047;-90
2022/08/18 12:12:52;;;;;;;10.50;3.72;;;23.80;99.90;;;;;;4912284;29;20048;-94
2022/08/18 12:16:24;;;;;;;9.43;3.15;;;24.00;99.90;;;;;;5147662;23;20043;-94
2022/08/18 12:18:49;;;;;;;7.47;2.60;;;24.20;99.90;;;;;;4966987;28;20458;-94
2022/08/18 12:21:18;;;;;;;6.53;2.55;;;24.10;99.90;;;;;;4982573;28;20042;-92
2022/08/18 12:24:02;;;;;;;8.35;2.85;;;23.80;99.90;;;;;;4941531;29;20126;-93
2022/08/18 12:26:37;;;;;;;8.00;2.88;;;23.50;99.90;;;;;;4939648;29;20043;-94
2022/08/18 12:30:06;;;;;;;6.60;2.60;;;23.40;99.90;;;;;;4940521;29;20055;-93
2022/08/18 12:32:34;;;;;;;7.40;2.70;;;23.60;99.90;;;;;;4939543;29;20472;-94
2022/08/18 12:35:16;;;;;;;8.65;2.58;;;23.90;99.90;;;;;;4940618;28;20047;-94
2022/08/18 12:37:43;;;;;;;6.97;2.50;;;24.40;99.90;;;;;;4957888;29;20043;-94
2022/08/18 12:40:10;;;;;;;11.60;3.25;;;24.80;99.90;;;;;;4939767;29;20198;-91
2022/08/18 12:42:48;;;;;;;9.13;2.80;;;25.20;99.90;;;;;;4939901;29;20047;-93
2022/08/18 12:45:21;;;;;;;9.30;3.17;;;25.50;99.90;;;;;;4939669;29;20039;-93
2022/08/18 12:48:08;;;;;;;8.27;2.80;;;25.50;99.90;;;;;;4958163;29;20050;-89
2022/08/18 12:50:45;;;;;;;7.60;3.08;;;25.60;99.90;;;;;;4957173;28;20130;-93
2022/08/18 12:53:40;;;;;;;7.85;2.70;;;26.10;99.90;;;;;;4954202;29;20524;-93
2022/08/18 12:56:18;;;;;;;11.18;3.45;;;25.60;99.90;;;;;;4945059;29;20083;-92
2022/08/18 12:58:44;;;;;;;9.15;3.45;;;25.60;99.90;;;;;;4940654;29;20050;-95
2022/08/18 13:01:09;;;;;;;8.68;2.92;;;25.60;99.90;;;;;;4944525;28;20027;-94
2022/08/18 13:03:35;;;;;;;9.77;3.13;;;25.60;99.90;;;;;;5005985;28;20065;-94
2022/08/18 13:06:01;;;;;;;8.25;3.47;;;25.90;99.90;;;;;;4980058;28;20047;-93
2022/08/18 13:08:27;;;;;;;9.15;3.30;;;26.20;99.90;;;;;;4977735;28;20045;-92
2022/08/18 13:10:53;;;;;;;8.60;3.22;;;26.40;99.90;;;;;;4979383;28;20410;-92
2022/08/18 13:13:20;;;;;;;8.55;3.50;;;26.20;99.90;;;;;;4995415;28;20039;-92
2022/08/18 13:15:46;;;;;;;8.52;3.60;;;26.00;99.90;;;;;;4998769;28;20064;-91
2022/08/18 13:18:13;;;;;;;11.02;3.58;;;26.30;99.90;;;;;;4974323;28;20502;-89
2022/08/18 13:20:40;;;;;;;8.18;3.30;;;26.00;99.90;;;;;;4968275;28;20050;-88
2022/08/18 13:23:06;;;;;;;8.25;2.90;;;26.00;99.90;;;;;;4940268;29;20102;-89
2022/08/18 13:25:31;;;;;;;7.35;2.63;;;25.60;99.90;;;;;;4967042;28;20137;-89
2022/08/18 13:27:57;;;;;;;7.25;2.78;;;25.40;99.90;;;;;;4961478;28;20058;-89
2022/08/18 13:30:23;;;;;;;8.05;2.60;;;25.20;99.90;;;;;;4964911;28;20047;-89
2022/08/18 13:32:50;;;;;;;7.00;2.78;;;24.60;99.90;;;;;;4965083;28;20047;-89
2022/08/18 13:35:16;;;;;;;8.05;3.05;;;24.70;99.90;;;;;;4957387;28;20098;-88
2022/08/18 13:37:41;;;;;;;9.90;3.30;;;24.80;99.90;;;;;;4975123;28;20045;-87
2022/08/18 13:40:09;;;;;;;9.57;3.03;;;25.00;99.90;;;;;;4957393;28;20051;-88
2022/08/18 13:42:44;;;;;;;8.05;3.05;;;25.10;99.90;;;;;;4956754;28;20525;-89
2022/08/18 13:45:12;;;;;;;7.90;2.72;;;25.20;99.90;;;;;;4975112;28;20039;-89
2022/08/18 13:47:38;;;;;;;7.00;2.55;;;25.20;99.90;;;;;;4956918;28;20086;-89
2022/08/18 13:50:04;;;;;;;8.38;3.20;;;25.00;99.90;;;;;;4974104;28;20410;-91
2022/08/18 13:52:31;;;;;;;7.93;3.20;;;24.70;99.90;;;;;;4957996;28;20081;-88
2022/08/18 13:54:57;;;;;;;9.20;3.53;;;24.80;99.90;;;;;;4957312;28;20046;-91
2022/08/18 13:57:22;;;;;;;9.95;4.20;;;24.70;99.90;;;;;;4956728;28;20133;-89
2022/08/18 13:59:50;;;;;;;8.25;3.25;;;24.60;99.90;;;;;;4975133;28;20050;-84
2022/08/18 14:02:15;;;;;;;9.73;3.35;;;24.80;99.90;;;;;;4957482;28;20446;-84
2022/08/18 14:04:41;;;;;;;8.32;3.60;;;25.10;99.90;;;;;;4974355;28;20046;-86
2022/08/18 14:07:18;;;;;;;;;;;;;;;;;;;;;
2022/08/18 14:09:53;;;;;;;8.23;3.45;;;24.90;99.90;;;;;;4931360;29;20147;-89
2022/08/18 14:12:34;;;;;;;8.45;3.13;;;24.80;99.90;;;;;;4962090;28;20263;-90
2022/08/18 14:14:59;;;;;;;8.73;3.40;;;24.40;99.90;;;;;;4956300;28;20054;-88
2022/08/18 14:26:47;;;;;;;9.10;3.00;;;25.50;99.90;;;;;;4967811;28;20139;-91
2022/08/18 14:29:14;;;;;;;10.57;3.10;;;25.60;99.90;;;;;;4960293;28;20051;-91
2022/08/18 14:31:48;;;;;;;7.78;3.20;;;25.50;99.90;;;;;;4936521;29;20055;-92
2022/08/18 14:34:13;;;;;;;8.77;3.13;;;25.80;99.90;;;;;;4937549;29;20039;-91
2022/08/18 14:36:39;;;;;;;8.25;3.00;;;26.60;99.90;;;;;;4937816;29;20047;-90
2022/08/18 14:39:11;;;;;;;8.45;2.80;;;26.10;99.90;;;;;;4954467;29;20054;-91
2022/08/18 14:41:37;;;;;;;8.13;3.00;;;26.10;99.90;;;;;;4937498;29;20055;-91